createdAt,value
2023-01-18T00:01:03.559Z,15.40
2023-01-18T00:03:34.076Z,14.87
2023-01-18T00:06:03.817Z,16.50
2023-01-18T00:08:34.301Z,15.67
2023-01-18T00:11:10.348Z,14.60
2023-01-18T00:13:39.687Z,14.90
2023-01-18T00:16:11.032Z,17.07
2023-01-18T00:18:40.286Z,16.57
2023-01-18T00:21:11.237Z,15.37
2023-01-18T00:23:41.196Z,15.37
2023-01-18T00:26:13.149Z,15.63
2023-01-18T00:28:42.773Z,17.50
2023-01-18T00:31:12.773Z,15.00
2023-01-18T00:33:44.521Z,14.90
2023-01-18T00:36:14.590Z,14.77
2023-01-18T00:38:44.129Z,13.90
2023-01-18T00:41:14.942Z,13.37
2023-01-18T00:43:43.327Z,15.07
2023-01-18T00:46:16.240Z,15.17
2023-01-18T00:48:46.060Z,14.23
2023-01-18T00:51:16.289Z,14.20
2023-01-18T00:53:46.275Z,14.57
2023-01-18T00:56:18.667Z,14.50
2023-01-18T00:58:48.903Z,13.53
2023-01-18T01:01:18.570Z,14.63
2023-01-18T01:04:05.455Z,14.90
2023-01-18T01:06:46.373Z,15.10
2023-01-18T01:09:18.562Z,13.87
2023-01-18T01:12:07.353Z,14.67
2023-01-18T01:14:54.568Z,14.33
2023-01-18T01:17:41.022Z,14.63
2023-01-18T01:20:28.424Z,14.37
2023-01-18T01:23:14.972Z,13.47
2023-01-18T01:26:01.932Z,15.23
2023-01-18T01:28:32.372Z,16.60
2023-01-18T01:31:02.459Z,16.33
2023-01-18T01:33:32.478Z,15.23
2023-01-18T01:36:03.649Z,16.03
2023-01-18T01:38:32.861Z,16.73
2023-01-18T01:41:03.198Z,16.13
2023-01-18T01:43:45.639Z,15.57
2023-01-18T01:46:20.402Z,16.80
2023-01-18T01:48:50.231Z,16.40
2023-01-18T01:51:21.784Z,15.97
2023-01-18T01:53:51.489Z,15.13
2023-01-18T01:56:21.472Z,16.57
2023-01-18T01:58:55.283Z,16.00
2023-01-18T02:01:25.021Z,16.67
2023-01-18T02:03:55.412Z,16.63
2023-01-18T02:06:31.685Z,15.80
2023-01-18T02:09:02.406Z,16.03
2023-01-18T02:11:31.359Z,15.67
2023-01-18T02:14:05.371Z,15.87
2023-01-18T02:16:45.876Z,17.73
2023-01-18T02:19:46.547Z,15.87
2023-01-18T02:22:34.120Z,16.70
2023-01-18T02:25:20.149Z,16.77
2023-01-18T02:27:57.251Z,17.03
2023-01-18T02:30:33.597Z,17.47
2023-01-18T02:33:07.992Z,17.00
2023-01-18T02:35:46.763Z,17.73
2023-01-18T02:38:21.474Z,17.87
2023-01-18T02:41:08.476Z,18.17
2023-01-18T02:43:55.291Z,16.80
2023-01-18T02:46:34.215Z,15.67
2023-01-18T02:49:06.781Z,16.50
2023-01-18T02:51:36.583Z,18.03
2023-01-18T02:54:10.186Z,18.57
2023-01-18T02:56:44.067Z,17.07
2023-01-18T02:59:17.421Z,17.87
2023-01-18T03:01:51.782Z,18.50
2023-01-18T03:04:25.990Z,17.33
2023-01-18T03:07:00.433Z,16.90
2023-01-18T03:09:30.114Z,18.03
2023-01-18T03:12:04.648Z,18.53
2023-01-18T03:14:43.609Z,19.10
2023-01-18T03:17:22.839Z,17.70
2023-01-18T03:20:08.966Z,18.57
2023-01-18T03:22:58.105Z,20.30
2023-01-18T03:25:32.396Z,20.90
2023-01-18T03:28:24.435Z,18.63
2023-01-18T03:31:13.095Z,18.43
2023-01-18T03:33:49.028Z,19.47
2023-01-18T03:36:20.022Z,17.53
2023-01-18T03:38:53.866Z,18.23
2023-01-18T03:41:26.444Z,17.30
2023-01-18T03:44:00.180Z,18.27
2023-01-18T03:46:33.027Z,17.70
2023-01-18T03:49:04.400Z,17.10
2023-01-18T03:51:47.510Z,17.40
2023-01-18T03:54:25.458Z,16.30
2023-01-18T03:56:59.144Z,17.10
2023-01-18T03:59:35.820Z,17.20
2023-01-18T04:02:05.569Z,18.77
2023-01-18T04:04:36.470Z,17.50
2023-01-18T04:07:06.012Z,17.43
2023-01-18T04:09:35.036Z,19.17
2023-01-18T04:12:04.271Z,17.83
2023-01-18T04:14:33.550Z,19.00
2023-01-18T04:17:02.752Z,18.83
2023-01-18T04:19:32.027Z,18.37
2023-01-18T04:22:03.363Z,18.07
2023-01-18T04:24:32.677Z,18.10
2023-01-18T04:27:01.798Z,17.17
2023-01-18T04:29:31.422Z,17.23
2023-01-18T04:32:00.680Z,17.57
2023-01-18T04:34:29.713Z,17.17
2023-01-18T04:36:58.795Z,17.87
2023-01-18T04:39:29.463Z,19.47
2023-01-18T04:41:59.143Z,17.10
2023-01-18T04:44:28.360Z,17.53
2023-01-18T04:46:57.716Z,17.13
2023-01-18T04:49:28.414Z,18.40
2023-01-18T04:51:57.861Z,18.73
2023-01-18T04:54:31.116Z,17.33
2023-01-18T04:57:00.330Z,18.70
2023-01-18T04:59:30.023Z,17.67
2023-01-18T05:01:59.317Z,19.20
2023-01-18T05:04:28.494Z,17.87
2023-01-18T05:06:57.664Z,18.37
2023-01-18T05:09:26.840Z,18.63
2023-01-18T05:11:57.461Z,17.80
2023-01-18T05:14:26.425Z,17.77
2023-01-18T05:16:55.389Z,18.40
2023-01-18T05:19:24.735Z,17.57
2023-01-18T05:21:53.884Z,17.93
2023-01-18T05:24:22.845Z,18.53
2023-01-18T05:26:51.967Z,18.00
2023-01-18T05:29:23.123Z,18.17
2023-01-18T05:31:52.555Z,18.63
2023-01-18T05:34:22.148Z,18.93
2023-01-18T05:36:51.310Z,18.77
2023-01-18T05:39:20.408Z,18.43
2023-01-18T05:41:49.520Z,19.77
2023-01-18T05:44:18.559Z,19.30
2023-01-18T05:46:50.179Z,19.17
2023-01-18T05:49:19.648Z,20.07
2023-01-18T05:51:48.774Z,21.10
2023-01-18T05:54:17.716Z,20.60
2023-01-18T05:56:46.598Z,20.87
2023-01-18T05:59:15.998Z,19.57
2023-01-18T06:01:45.786Z,19.30
2023-01-18T06:04:17.036Z,20.33
2023-01-18T06:06:46.737Z,18.33
2023-01-18T06:09:16.398Z,19.43
2023-01-18T06:11:45.680Z,18.23
2023-01-18T06:14:15.174Z,17.10
2023-01-18T06:16:44.422Z,17.70
2023-01-18T06:19:13.520Z,19.57
2023-01-18T06:21:44.029Z,19.67
2023-01-18T06:24:13.717Z,17.27
2023-01-18T06:26:43.108Z,17.57
2023-01-18T06:29:12.115Z,17.40
2023-01-18T06:31:41.772Z,17.13
2023-01-18T06:34:10.827Z,16.90
2023-01-18T06:36:41.053Z,17.20
2023-01-18T06:39:12.156Z,17.37
2023-01-18T06:41:41.521Z,18.87
2023-01-18T06:44:11.081Z,17.97
2023-01-18T06:46:40.148Z,17.53
2023-01-18T06:49:09.611Z,18.37
2023-01-18T06:51:39.200Z,17.50
2023-01-18T06:54:08.897Z,16.73
2023-01-18T06:56:40.236Z,18.30
2023-01-18T06:59:09.185Z,16.80
2023-01-18T07:01:38.111Z,16.03
2023-01-18T07:04:07.582Z,16.97
2023-01-18T07:06:38.094Z,18.57
2023-01-18T07:09:10.895Z,15.67
2023-01-18T07:11:43.476Z,16.73
2023-01-18T07:14:12.755Z,16.03
2023-01-18T07:16:42.232Z,16.53
2023-01-18T07:19:11.824Z,16.13
2023-01-18T07:21:41.006Z,16.53
2023-01-18T07:24:10.424Z,15.70
2023-01-18T07:26:39.931Z,17.10
2023-01-18T07:29:10.512Z,16.00
2023-01-18T07:31:40.883Z,14.57
2023-01-18T07:34:11.360Z,17.03
2023-01-18T07:36:42.205Z,14.83
2023-01-18T07:39:11.482Z,15.77
2023-01-18T07:41:40.616Z,18.90
2023-01-18T07:44:12.279Z,18.43
2023-01-18T07:46:42.884Z,17.13
2023-01-18T07:49:12.318Z,17.77
2023-01-18T07:51:41.690Z,16.17
2023-01-18T07:54:10.754Z,16.87
2023-01-18T07:56:40.491Z,17.13
2023-01-18T07:59:10.157Z,15.37
2023-01-18T08:01:41.206Z,15.97
2023-01-18T08:04:10.724Z,16.20
2023-01-18T08:06:40.032Z,16.17
2023-01-18T08:09:09.198Z,16.47
2023-01-18T08:11:38.343Z,17.27
2023-01-18T08:14:07.513Z,16.07
2023-01-18T08:16:36.446Z,15.57
2023-01-18T08:19:06.714Z,14.47
2023-01-18T08:21:35.968Z,17.60
2023-01-18T08:24:05.488Z,16.13
2023-01-18T08:26:35.026Z,15.90
2023-01-18T08:29:04.218Z,15.17
2023-01-18T08:31:33.548Z,17.53
2023-01-18T08:34:03.329Z,17.87
2023-01-18T08:36:34.398Z,17.90
2023-01-18T08:39:04.071Z,19.30
2023-01-18T08:41:33.947Z,17.07
2023-01-18T08:44:03.357Z,19.23
2023-01-18T08:46:33.260Z,18.93
2023-01-18T08:49:06.047Z,16.90
2023-01-18T08:51:37.478Z,17.33
2023-01-18T08:54:07.824Z,18.50
2023-01-18T08:56:37.308Z,19.40
2023-01-18T08:59:10.320Z,16.00
2023-01-18T09:01:39.594Z,19.50
2023-01-18T09:04:09.377Z,16.63
2023-01-18T09:06:40.541Z,16.37
2023-01-18T09:09:11.828Z,16.27
2023-01-18T09:11:41.107Z,18.40
2023-01-18T09:14:10.988Z,19.77
2023-01-18T09:16:40.489Z,19.17
2023-01-18T09:19:10.474Z,19.60
2023-01-18T09:21:42.052Z,18.23
2023-01-18T09:24:11.519Z,19.13
2023-01-18T09:26:41.624Z,20.03
2023-01-18T09:29:12.138Z,20.73
2023-01-18T09:31:41.486Z,17.53
2023-01-18T09:34:19.228Z,17.43
2023-01-18T09:36:52.009Z,19.17
2023-01-18T09:39:21.890Z,19.27
2023-01-18T09:41:55.942Z,18.50
2023-01-18T09:44:30.323Z,17.17
2023-01-18T09:47:03.289Z,17.93
2023-01-18T09:49:38.885Z,17.23
2023-01-18T09:52:28.854Z,18.20
2023-01-18T09:55:04.431Z,17.33
2023-01-18T09:57:53.686Z,17.43
2023-01-18T10:00:25.862Z,16.30
2023-01-18T10:03:01.387Z,15.90
2023-01-18T10:05:34.770Z,16.67
2023-01-18T10:08:14.199Z,16.33
2023-01-18T10:10:52.097Z,15.93
2023-01-18T10:13:35.849Z,15.43
2023-01-18T10:16:05.411Z,16.83
2023-01-18T10:18:39.979Z,16.80
2023-01-18T10:21:09.971Z,17.43
2023-01-18T10:23:46.318Z,17.20
2023-01-18T10:26:22.270Z,15.97
2023-01-18T10:28:59.354Z,17.17
2023-01-18T10:31:40.051Z,16.10
2023-01-18T10:34:18.301Z,16.43
2023-01-18T10:36:50.808Z,16.13
2023-01-18T10:39:40.908Z,15.77
2023-01-18T10:42:19.714Z,14.97
2023-01-18T10:44:49.732Z,16.40
2023-01-18T10:47:19.821Z,16.17
2023-01-18T10:49:51.282Z,16.17
2023-01-18T10:52:24.435Z,16.70
2023-01-18T10:54:58.602Z,15.80
2023-01-18T10:57:33.762Z,14.17
2023-01-18T11:00:03.254Z,14.60
2023-01-18T11:02:37.565Z,14.73
2023-01-18T11:05:22.416Z,12.77
2023-01-18T11:08:12.499Z,13.57
2023-01-18T11:10:44.109Z,12.97
2023-01-18T11:13:35.483Z,12.97
2023-01-18T11:16:05.995Z,13.30
2023-01-18T11:18:35.331Z,12.87
2023-01-18T11:21:05.159Z,13.90
2023-01-18T11:23:36.618Z,14.57
2023-01-18T11:26:15.129Z,13.50
2023-01-18T11:28:50.076Z,14.93
2023-01-18T11:31:22.310Z,14.83
2023-01-18T11:33:54.149Z,14.17
2023-01-18T11:36:35.072Z,14.23
2023-01-18T11:39:20.039Z,14.77
2023-01-18T11:41:50.881Z,13.77
2023-01-18T11:44:23.049Z,13.20
2023-01-18T11:46:53.737Z,13.43
2023-01-18T11:49:41.119Z,12.90
2023-01-18T11:52:17.283Z,11.63
2023-01-18T11:54:50.481Z,11.00
2023-01-18T11:57:25.160Z,9.73
2023-01-18T11:59:54.608Z,11.47
2023-01-18T12:02:56.613Z,10.90
2023-01-18T12:05:35.963Z,10.50
2023-01-18T12:08:38.587Z,11.40
2023-01-18T12:11:21.033Z,10.53
2023-01-18T12:13:59.749Z,11.07
2023-01-18T12:16:47.227Z,11.77
2023-01-18T12:19:43.094Z,10.63
2023-01-18T12:22:48.019Z,11.77
2023-01-18T12:26:06.829Z,11.63
2023-01-18T12:28:54.886Z,11.27
2023-01-18T12:31:38.743Z,10.83
2023-01-18T12:34:12.737Z,11.00
2023-01-18T12:37:01.991Z,11.40
2023-01-18T12:39:54.275Z,11.30
2023-01-18T12:42:30.635Z,12.30
2023-01-18T12:45:12.195Z,12.07
2023-01-18T12:47:48.003Z,11.33
2023-01-18T12:50:25.459Z,13.30
2023-01-18T12:52:55.948Z,12.03
2023-01-18T12:55:26.986Z,11.60
2023-01-18T12:58:11.500Z,12.20
2023-01-18T13:00:47.367Z,12.13
2023-01-18T13:03:25.144Z,12.83
2023-01-18T13:05:58.114Z,12.27
2023-01-18T13:08:39.258Z,12.77
2023-01-18T13:11:12.345Z,13.03
2023-01-18T13:13:45.386Z,12.80
2023-01-18T13:16:29.163Z,13.00
2023-01-18T13:19:03.885Z,13.00
2023-01-18T13:21:53.348Z,14.20
2023-01-18T13:24:32.372Z,12.90
2023-01-18T13:27:10.451Z,12.20
2023-01-18T13:29:40.151Z,11.50
2023-01-18T13:32:23.625Z,12.40
2023-01-18T13:35:18.498Z,12.50
2023-01-18T13:37:49.796Z,12.17
2023-01-18T13:40:34.934Z,12.97
2023-01-18T13:43:04.974Z,11.80
2023-01-18T13:45:34.532Z,12.50
2023-01-18T13:48:07.820Z,12.67
2023-01-18T13:50:48.755Z,13.10
2023-01-18T13:53:31.360Z,13.20
2023-01-18T13:56:29.697Z,12.80
2023-01-18T13:59:03.059Z,14.03
2023-01-18T14:01:36.651Z,13.37
2023-01-18T14:04:25.872Z,12.93
2023-01-18T14:06:58.089Z,12.87
2023-01-18T14:09:35.463Z,14.57
2023-01-18T14:12:06.304Z,13.47
2023-01-18T14:14:38.113Z,14.97
2023-01-18T14:17:17.565Z,14.13
2023-01-18T14:20:15.733Z,14.17
2023-01-18T14:23:06.686Z,14.73
2023-01-18T14:26:00.883Z,14.93
2023-01-18T14:28:36.647Z,15.40
2023-01-18T14:31:07.579Z,23.10
2023-01-18T14:33:40.161Z,20.77
2023-01-18T14:36:10.167Z,16.83
2023-01-18T14:38:44.361Z,15.83
2023-01-18T14:41:18.980Z,15.37
2023-01-18T14:43:49.615Z,14.30
2023-01-18T14:46:24.275Z,14.13
2023-01-18T14:48:56.384Z,14.70
2023-01-18T14:51:27.246Z,16.63
2023-01-18T14:54:00.843Z,14.00
2023-01-18T14:56:32.432Z,14.47
2023-01-18T14:59:03.423Z,14.70
2023-01-18T15:01:33.555Z,14.50
2023-01-18T15:04:04.587Z,14.23
2023-01-18T15:06:40.026Z,16.20
2023-01-18T15:09:12.458Z,15.67
2023-01-18T15:11:43.632Z,16.03
2023-01-18T15:14:18.332Z,15.77
2023-01-18T15:16:48.566Z,16.73
2023-01-18T15:19:20.522Z,19.90
2023-01-18T15:21:49.911Z,15.83
2023-01-18T15:24:23.069Z,16.07
2023-01-18T15:26:56.672Z,16.87
2023-01-18T15:29:28.594Z,16.53
2023-01-18T15:32:00.219Z,17.27
2023-01-18T15:34:33.348Z,16.67
2023-01-18T15:37:05.013Z,15.27
2023-01-18T15:39:35.816Z,15.43
2023-01-18T15:42:09.214Z,18.10
2023-01-18T15:44:45.156Z,17.40
2023-01-18T15:47:23.254Z,18.17
2023-01-18T15:49:54.230Z,15.67
2023-01-18T15:52:42.670Z,15.17
2023-01-18T15:55:25.027Z,17.23
2023-01-18T15:58:00.040Z,15.00
2023-01-18T16:00:33.719Z,15.83
2023-01-18T16:03:04.560Z,16.17
2023-01-18T16:05:33.990Z,17.50
2023-01-18T16:08:22.146Z,17.33
2023-01-18T16:10:57.103Z,19.07
2023-01-18T16:13:54.066Z,20.87
2023-01-18T16:16:32.489Z,24.50
2023-01-18T16:19:21.263Z,25.10
2023-01-18T16:22:06.040Z,24.00
2023-01-18T16:24:38.127Z,23.13
2023-01-18T16:27:14.678Z,24.90
2023-01-18T16:29:48.737Z,22.27
2023-01-18T16:32:19.072Z,22.47
2023-01-18T16:34:48.488Z,22.80
2023-01-18T16:37:19.007Z,22.00
2023-01-18T16:40:00.396Z,24.07
2023-01-18T16:42:38.136Z,22.33
2023-01-18T16:45:08.987Z,19.07
2023-01-18T16:47:38.162Z,21.00
2023-01-18T16:50:14.845Z,20.23
2023-01-18T16:52:45.454Z,21.50
2023-01-18T16:55:15.572Z,22.50
2023-01-18T16:57:47.286Z,22.37
2023-01-18T17:00:29.807Z,23.10
2023-01-18T17:03:04.320Z,21.20
2023-01-18T17:05:34.043Z,23.07
2023-01-18T17:08:05.408Z,23.63
2023-01-18T17:10:39.569Z,22.87
2023-01-18T17:13:10.996Z,25.17
2023-01-18T17:15:41.856Z,25.13
2023-01-18T17:18:15.864Z,25.20
2023-01-18T17:20:44.943Z,33.20
2023-01-18T17:23:14.771Z,33.53
2023-01-18T17:25:43.933Z,43.57
2023-01-18T17:28:15.725Z,33.83
2023-01-18T17:30:47.437Z,32.93
2023-01-18T17:33:19.792Z,33.30
2023-01-18T17:35:49.856Z,30.20
2023-01-18T17:38:25.138Z,34.47
2023-01-18T17:40:56.280Z,32.20
2023-01-18T17:43:34.821Z,32.37
2023-01-18T17:46:08.313Z,33.80
2023-01-18T17:48:37.413Z,28.93
2023-01-18T17:51:07.648Z,27.30
2023-01-18T17:53:36.815Z,27.13
2023-01-18T17:56:08.281Z,27.93
2023-01-18T17:58:38.917Z,27.27
2023-01-18T18:01:11.988Z,28.83
2023-01-18T18:03:45.532Z,29.03
2023-01-18T18:06:26.204Z,28.70
2023-01-18T18:08:59.715Z,31.63
2023-01-18T18:11:30.031Z,27.83
2023-01-18T18:14:03.401Z,28.13
2023-01-18T18:16:38.479Z,26.00
2023-01-18T18:19:14.860Z,27.50
2023-01-18T18:21:44.066Z,26.90
2023-01-18T18:24:13.631Z,25.50
2023-01-18T18:26:42.726Z,27.93
2023-01-18T18:29:13.265Z,25.13
2023-01-18T18:31:44.393Z,25.97
2023-01-18T18:34:14.069Z,28.07
2023-01-18T18:36:43.288Z,28.10
2023-01-18T18:39:13.621Z,27.67
2023-01-18T18:41:44.912Z,28.40
2023-01-18T18:44:15.907Z,29.27
2023-01-18T18:46:46.164Z,26.53
2023-01-18T18:49:15.952Z,27.90
2023-01-18T18:51:45.132Z,26.87
2023-01-18T18:54:14.660Z,27.63
2023-01-18T18:56:44.405Z,28.00
2023-01-18T18:59:14.074Z,32.53
2023-01-18T19:01:44.849Z,38.43
2023-01-18T19:04:14.255Z,42.43
2023-01-18T19:06:43.885Z,47.87
2023-01-18T19:09:13.231Z,36.63
2023-01-18T19:11:50.718Z,38.07
2023-01-18T19:14:26.225Z,35.00
2023-01-18T19:16:57.248Z,44.37
2023-01-18T19:19:27.941Z,30.53
2023-01-18T19:21:58.009Z,33.07
2023-01-18T19:24:32.242Z,31.40
2023-01-18T19:27:01.886Z,33.03
2023-01-18T19:29:31.975Z,50.83
2023-01-18T19:32:03.025Z,33.67
2023-01-18T19:34:32.621Z,42.90
2023-01-18T19:37:02.081Z,32.07
2023-01-18T19:39:34.784Z,31.37
2023-01-18T19:42:04.691Z,35.37
2023-01-18T19:44:33.927Z,34.07
2023-01-18T19:47:04.832Z,34.23
2023-01-18T19:49:34.567Z,30.47
2023-01-18T19:52:03.928Z,29.57
2023-01-18T19:54:34.324Z,34.20
2023-01-18T19:57:03.460Z,32.03
2023-01-18T19:59:32.648Z,34.57
2023-01-18T20:02:02.101Z,33.70
2023-01-18T20:04:34.224Z,32.37
2023-01-18T20:07:04.322Z,33.83
2023-01-18T20:09:42.825Z,34.97
2023-01-18T20:12:14.334Z,35.70
2023-01-18T20:14:45.327Z,31.53
2023-01-18T20:17:15.964Z,27.87
2023-01-18T20:19:46.804Z,31.77
2023-01-18T20:22:16.186Z,28.60
2023-01-18T20:24:45.792Z,27.30
2023-01-18T20:27:16.561Z,27.07
2023-01-18T20:29:46.825Z,25.27
2023-01-18T20:32:17.800Z,26.17
2023-01-18T20:34:49.200Z,26.03
2023-01-18T20:37:18.710Z,26.33
2023-01-18T20:39:48.022Z,26.53
2023-01-18T20:42:17.694Z,25.63
2023-01-18T20:44:50.021Z,26.90
2023-01-18T20:47:20.425Z,27.63
2023-01-18T20:49:51.393Z,23.43
2023-01-18T20:52:24.664Z,26.50
2023-01-18T20:54:54.778Z,25.10
2023-01-18T20:57:24.674Z,25.57
2023-01-18T20:59:53.808Z,27.67
2023-01-18T21:02:23.391Z,28.03
2023-01-18T21:04:54.569Z,29.67
2023-01-18T21:07:23.962Z,28.67
2023-01-18T21:09:53.510Z,27.87
2023-01-18T21:12:23.107Z,27.10
2023-01-18T21:14:52.544Z,25.43
2023-01-18T21:17:22.700Z,25.00
2023-01-18T21:19:53.851Z,25.70
2023-01-18T21:22:23.802Z,28.50
2023-01-18T21:24:52.969Z,25.60
2023-01-18T21:27:27.048Z,24.80
2023-01-18T21:29:56.319Z,24.90
2023-01-18T21:32:25.425Z,26.50
2023-01-18T21:34:55.993Z,26.83
2023-01-18T21:37:25.176Z,27.17
2023-01-18T21:39:54.576Z,28.10
2023-01-18T21:42:40.961Z,25.10
2023-01-18T21:45:30.049Z,26.83
2023-01-18T21:48:03.073Z,26.83
2023-01-18T21:50:51.387Z,24.63
2023-01-18T21:53:38.422Z,23.97
2023-01-18T21:56:08.318Z,23.70
2023-01-18T21:59:03.744Z,22.17
2023-01-18T22:01:38.340Z,20.73
2023-01-18T22:04:26.593Z,20.30
2023-01-18T22:06:59.464Z,22.73
2023-01-18T22:09:30.377Z,21.60
2023-01-18T22:11:59.933Z,21.90
2023-01-18T22:14:30.007Z,21.83
2023-01-18T22:16:59.273Z,23.80
2023-01-18T22:19:28.361Z,23.67
2023-01-18T22:21:59.397Z,24.00
2023-01-18T22:24:28.944Z,26.57
2023-01-18T22:26:58.423Z,24.20
2023-01-18T22:29:27.572Z,28.97
2023-01-18T22:31:57.306Z,32.30
2023-01-18T22:34:26.463Z,30.50
2023-01-18T22:36:55.300Z,34.47
2023-01-18T22:39:25.555Z,32.73
2023-01-18T22:41:54.506Z,31.63
2023-01-18T22:44:23.747Z,27.47
2023-01-18T22:46:52.907Z,25.87
2023-01-18T22:49:22.024Z,29.73
2023-01-18T22:51:51.002Z,28.40
2023-01-18T22:54:23.158Z,31.00
2023-01-18T22:56:53.821Z,30.47
2023-01-18T22:59:23.068Z,31.80
2023-01-18T23:01:52.342Z,28.63
2023-01-18T23:04:21.445Z,27.23
2023-01-18T23:06:52.580Z,27.23
2023-01-18T23:09:21.602Z,29.27
2023-01-18T23:11:51.912Z,29.67
2023-01-18T23:14:39.725Z,28.40
2023-01-18T23:17:26.082Z,27.37
2023-01-18T23:19:55.501Z,27.23
2023-01-18T23:22:24.542Z,27.07
2023-01-18T23:24:53.858Z,27.83
2023-01-18T23:27:25.392Z,28.53
2023-01-18T23:29:58.943Z,26.40
2023-01-18T23:32:30.785Z,26.90
2023-01-18T23:34:59.976Z,26.00
2023-01-18T23:37:30.314Z,25.43
2023-01-18T23:40:16.656Z,24.03
2023-01-18T23:43:03.693Z,26.30
2023-01-18T23:45:51.472Z,23.27
2023-01-18T23:48:38.782Z,22.97
2023-01-18T23:51:27.720Z,25.87
2023-01-18T23:54:16.451Z,23.23
2023-01-18T23:56:47.363Z,25.87
2023-01-18T23:59:16.614Z,25.73
